sensor_id;sensor_type;location;lat;lon;timestamp;P1;durP1;ratioP1;P2;durP2;ratioP2
31732;SDS011;18312;51.486;7.144;2023-11-18T00:00:50;1125.55;;;990.20;;
31732;SDS011;18312;51.486;7.144;2023-11-18T00:03:16;1131.32;;;991.28;;
31732;SDS011;18312;51.486;7.144;2023-11-18T00:05:43;1128.97;;;995.25;;
31732;SDS011;18312;51.486;7.144;2023-11-18T00:08:10;1125.67;;;993.17;;
31732;SDS011;18312;51.486;7.144;2023-11-18T00:10:37;1128.40;;;993.73;;
31732;SDS011;18312;51.486;7.144;2023-11-18T00:13:05;1117.43;;;992.80;;
31732;SDS011;18312;51.486;7.144;2023-11-18T00:15:33;1116.20;;;991.95;;
31732;SDS011;18312;51.486;7.144;2023-11-18T00:18:01;1113.28;;;988.38;;
31732;SDS011;18312;51.486;7.144;2023-11-18T00:20:28;1115.75;;;990.72;;
31732;SDS011;18312;51.486;7.144;2023-11-18T00:22:55;1116.90;;;993.33;;
31732;SDS011;18312;51.486;7.144;2023-11-18T00:25:22;1111.70;;;987.22;;
31732;SDS011;18312;51.486;7.144;2023-11-18T00:27:49;1114.63;;;988.67;;
31732;SDS011;18312;51.486;7.144;2023-11-18T00:30:16;1117.70;;;992.03;;
31732;SDS011;18312;51.486;7.144;2023-11-18T00:32:44;1113.85;;;990.38;;
31732;SDS011;18312;51.486;7.144;2023-11-18T00:35:11;1117.28;;;994.10;;
31732;SDS011;18312;51.486;7.144;2023-11-18T00:37:38;1117.13;;;994.00;;
31732;SDS011;18312;51.486;7.144;2023-11-18T00:40:06;1111.07;;;988.50;;
31732;SDS011;18312;51.486;7.144;2023-11-18T00:42:33;1116.90;;;993.67;;
31732;SDS011;18312;51.486;7.144;2023-11-18T00:45:01;1111.97;;;989.10;;
31732;SDS011;18312;51.486;7.144;2023-11-18T00:47:29;1115.37;;;992.97;;
31732;SDS011;18312;51.486;7.144;2023-11-18T00:49:57;1113.45;;;991.13;;
31732;SDS011;18312;51.486;7.144;2023-11-18T00:52:26;1115.82;;;993.28;;
31732;SDS011;18312;51.486;7.144;2023-11-18T00:54:53;1114.40;;;992.15;;
31732;SDS011;18312;51.486;7.144;2023-11-18T00:57:20;1114.95;;;992.40;;
31732;SDS011;18312;51.486;7.144;2023-11-18T00:59:47;1113.90;;;991.83;;
31732;SDS011;18312;51.486;7.144;2023-11-18T01:02:15;1114.67;;;991.93;;
31732;SDS011;18312;51.486;7.144;2023-11-18T01:04:43;1114.43;;;991.90;;
31732;SDS011;18312;51.486;7.144;2023-11-18T01:07:12;1112.38;;;990.55;;
31732;SDS011;18312;51.486;7.144;2023-11-18T01:09:39;1111.25;;;989.55;;
31732;SDS011;18312;51.486;7.144;2023-11-18T01:12:06;1112.32;;;989.80;;
31732;SDS011;18312;51.486;7.144;2023-11-18T01:14:35;1107.03;;;985.13;;
31732;SDS011;18312;51.486;7.144;2023-11-18T01:17:02;1105.50;;;983.95;;
31732;SDS011;18312;51.486;7.144;2023-11-18T01:19:29;1104.07;;;982.78;;
31732;SDS011;18312;51.486;7.144;2023-11-18T01:21:56;1108.13;;;986.53;;
31732;SDS011;18312;51.486;7.144;2023-11-18T01:24:24;1111.05;;;989.08;;
31732;SDS011;18312;51.486;7.144;2023-11-18T01:26:51;1110.70;;;988.55;;
31732;SDS011;18312;51.486;7.144;2023-11-18T01:29:18;1104.57;;;983.33;;
31732;SDS011;18312;51.486;7.144;2023-11-18T01:31:46;1105.03;;;984.10;;
31732;SDS011;18312;51.486;7.144;2023-11-18T01:34:12;1108.57;;;986.95;;
31732;SDS011;18312;51.486;7.144;2023-11-18T01:36:39;1108.30;;;986.65;;
31732;SDS011;18312;51.486;7.144;2023-11-18T01:39:08;1109.37;;;988.37;;
31732;SDS011;18312;51.486;7.144;2023-11-18T01:41:39;1109.25;;;987.63;;
31732;SDS011;18312;51.486;7.144;2023-11-18T01:44:06;1113.03;;;991.30;;
31732;SDS011;18312;51.486;7.144;2023-11-18T01:46:33;1113.45;;;991.65;;
31732;SDS011;18312;51.486;7.144;2023-11-18T01:49:00;1112.68;;;991.20;;
31732;SDS011;18312;51.486;7.144;2023-11-18T01:51:28;1109.80;;;988.90;;
31732;SDS011;18312;51.486;7.144;2023-11-18T01:53:55;1110.57;;;989.08;;
31732;SDS011;18312;51.486;7.144;2023-11-18T01:56:26;1110.95;;;988.72;;
31732;SDS011;18312;51.486;7.144;2023-11-18T01:58:55;1113.43;;;992.10;;
31732;SDS011;18312;51.486;7.144;2023-11-18T02:01:23;1109.37;;;988.63;;
31732;SDS011;18312;51.486;7.144;2023-11-18T02:03:51;1111.72;;;990.35;;
31732;SDS011;18312;51.486;7.144;2023-11-18T02:06:18;1111.35;;;990.15;;
31732;SDS011;18312;51.486;7.144;2023-11-18T02:08:46;1109.67;;;988.20;;
31732;SDS011;18312;51.486;7.144;2023-11-18T02:11:14;1109.43;;;988.30;;
31732;SDS011;18312;51.486;7.144;2023-11-18T02:13:47;1108.72;;;987.08;;
31732;SDS011;18312;51.486;7.144;2023-11-18T02:16:17;1110.35;;;988.97;;
31732;SDS011;18312;51.486;7.144;2023-11-18T02:18:45;1109.15;;;988.28;;
31732;SDS011;18312;51.486;7.144;2023-11-18T02:21:15;1109.53;;;989.00;;
31732;SDS011;18312;51.486;7.144;2023-11-18T02:23:43;1107.72;;;987.03;;
31732;SDS011;18312;51.486;7.144;2023-11-18T02:26:11;1105.13;;;984.33;;
31732;SDS011;18312;51.486;7.144;2023-11-18T02:28:47;1107.60;;;986.65;;
31732;SDS011;18312;51.486;7.144;2023-11-18T02:31:15;1107.63;;;987.03;;
31732;SDS011;18312;51.486;7.144;2023-11-18T02:33:53;1109.88;;;988.88;;
31732;SDS011;18312;51.486;7.144;2023-11-18T02:36:30;1113.38;;;992.13;;
31732;SDS011;18312;51.486;7.144;2023-11-18T02:39:02;1112.70;;;991.78;;
31732;SDS011;18312;51.486;7.144;2023-11-18T02:41:34;1113.63;;;992.58;;
31732;SDS011;18312;51.486;7.144;2023-11-18T02:44:02;1115.88;;;994.83;;
31732;SDS011;18312;51.486;7.144;2023-11-18T02:46:33;1122.90;;;999.90;;
31732;SDS011;18312;51.486;7.144;2023-11-18T02:49:00;1115.33;;;994.80;;
31732;SDS011;18312;51.486;7.144;2023-11-18T02:51:27;1114.43;;;993.35;;
31732;SDS011;18312;51.486;7.144;2023-11-18T02:53:54;1116.88;;;996.03;;
31732;SDS011;18312;51.486;7.144;2023-11-18T02:56:21;1117.50;;;996.38;;
31732;SDS011;18312;51.486;7.144;2023-11-18T02:58:49;1117.57;;;996.67;;
31732;SDS011;18312;51.486;7.144;2023-11-18T03:01:16;1125.78;;;999.90;;
31732;SDS011;18312;51.486;7.144;2023-11-18T03:03:44;1124.20;;;999.90;;
31732;SDS011;18312;51.486;7.144;2023-11-18T03:06:11;1120.10;;;999.08;;
31732;SDS011;18312;51.486;7.144;2023-11-18T03:08:38;1119.97;;;999.10;;
31732;SDS011;18312;51.486;7.144;2023-11-18T03:11:06;1123.25;;;999.90;;
31732;SDS011;18312;51.486;7.144;2023-11-18T03:13:34;1124.47;;;999.90;;
31732;SDS011;18312;51.486;7.144;2023-11-18T03:16:05;1120.97;;;999.40;;
31732;SDS011;18312;51.486;7.144;2023-11-18T03:18:36;1124.50;;;999.90;;
31732;SDS011;18312;51.486;7.144;2023-11-18T03:21:04;1125.55;;;999.90;;
31732;SDS011;18312;51.486;7.144;2023-11-18T03:23:32;1128.10;;;999.90;;
31732;SDS011;18312;51.486;7.144;2023-11-18T03:25:59;1125.47;;;999.90;;
31732;SDS011;18312;51.486;7.144;2023-11-18T03:28:25;1127.35;;;999.90;;
31732;SDS011;18312;51.486;7.144;2023-11-18T03:30:58;1130.80;;;999.90;;
31732;SDS011;18312;51.486;7.144;2023-11-18T03:33:26;1132.80;;;999.90;;
31732;SDS011;18312;51.486;7.144;2023-11-18T03:35:53;1131.37;;;999.90;;
31732;SDS011;18312;51.486;7.144;2023-11-18T03:38:21;1130.03;;;999.90;;
31732;SDS011;18312;51.486;7.144;2023-11-18T03:40:48;1129.38;;;999.90;;
31732;SDS011;18312;51.486;7.144;2023-11-18T03:43:17;1130.60;;;999.90;;
31732;SDS011;18312;51.486;7.144;2023-11-18T03:45:45;1128.60;;;999.90;;
31732;SDS011;18312;51.486;7.144;2023-11-18T03:48:11;1134.00;;;999.90;;
31732;SDS011;18312;51.486;7.144;2023-11-18T03:50:40;1132.10;;;999.90;;
31732;SDS011;18312;51.486;7.144;2023-11-18T03:53:09;1131.50;;;999.90;;
31732;SDS011;18312;51.486;7.144;2023-11-18T03:55:37;1130.00;;;999.90;;
31732;SDS011;18312;51.486;7.144;2023-11-18T03:58:03;1129.67;;;999.90;;
31732;SDS011;18312;51.486;7.144;2023-11-18T04:00:30;1125.70;;;999.90;;
31732;SDS011;18312;51.486;7.144;2023-11-18T04:02:57;1125.72;;;999.90;;
31732;SDS011;18312;51.486;7.144;2023-11-18T04:05:24;1133.20;;;999.90;;
31732;SDS011;18312;51.486;7.144;2023-11-18T04:07:52;1129.88;;;999.90;;
31732;SDS011;18312;51.486;7.144;2023-11-18T04:10:19;1125.57;;;999.90;;
31732;SDS011;18312;51.486;7.144;2023-11-18T04:12:47;1130.30;;;999.90;;
31732;SDS011;18312;51.486;7.144;2023-11-18T04:15:14;1130.07;;;999.90;;
31732;SDS011;18312;51.486;7.144;2023-11-18T04:17:41;1132.40;;;999.90;;
31732;SDS011;18312;51.486;7.144;2023-11-18T04:20:09;1125.85;;;999.90;;
31732;SDS011;18312;51.486;7.144;2023-11-18T04:22:37;1125.87;;;999.90;;
31732;SDS011;18312;51.486;7.144;2023-11-18T04:25:07;1127.55;;;999.90;;
31732;SDS011;18312;51.486;7.144;2023-11-18T04:27:34;1130.43;;;999.90;;
31732;SDS011;18312;51.486;7.144;2023-11-18T04:30:01;1133.90;;;999.90;;
31732;SDS011;18312;51.486;7.144;2023-11-18T04:32:27;1126.18;;;999.90;;
31732;SDS011;18312;51.486;7.144;2023-11-18T04:34:57;1124.23;;;999.90;;
31732;SDS011;18312;51.486;7.144;2023-11-18T04:37:24;1122.97;;;999.90;;
31732;SDS011;18312;51.486;7.144;2023-11-18T04:39:51;1125.32;;;999.90;;
31732;SDS011;18312;51.486;7.144;2023-11-18T04:42:20;1119.05;;;998.47;;
31732;SDS011;18312;51.486;7.144;2023-11-18T04:44:47;1126.50;;;999.90;;
31732;SDS011;18312;51.486;7.144;2023-11-18T04:47:14;1118.43;;;997.78;;
31732;SDS011;18312;51.486;7.144;2023-11-18T04:49:43;1125.00;;;999.90;;
31732;SDS011;18312;51.486;7.144;2023-11-18T04:52:10;1122.18;;;999.90;;
31732;SDS011;18312;51.486;7.144;2023-11-18T04:54:36;1122.13;;;999.90;;
31732;SDS011;18312;51.486;7.144;2023-11-18T04:57:03;1122.72;;;999.90;;
31732;SDS011;18312;51.486;7.144;2023-11-18T04:59:31;1124.28;;;999.90;;
31732;SDS011;18312;51.486;7.144;2023-11-18T05:01:58;1123.32;;;999.90;;
31732;SDS011;18312;51.486;7.144;2023-11-18T05:04:27;1124.50;;;999.90;;
31732;SDS011;18312;51.486;7.144;2023-11-18T05:06:54;1123.78;;;999.90;;
31732;SDS011;18312;51.486;7.144;2023-11-18T05:09:22;1124.82;;;999.90;;
31732;SDS011;18312;51.486;7.144;2023-11-18T05:11:49;1125.88;;;999.90;;
31732;SDS011;18312;51.486;7.144;2023-11-18T05:14:15;1117.95;;;997.75;;
31732;SDS011;18312;51.486;7.144;2023-11-18T05:16:44;1124.95;;;999.90;;
31732;SDS011;18312;51.486;7.144;2023-11-18T05:19:10;1130.40;;;999.90;;
31732;SDS011;18312;51.486;7.144;2023-11-18T05:21:37;1128.43;;;999.90;;
31732;SDS011;18312;51.486;7.144;2023-11-18T05:24:05;1126.50;;;999.90;;
31732;SDS011;18312;51.486;7.144;2023-11-18T05:26:33;1126.15;;;999.90;;
31732;SDS011;18312;51.486;7.144;2023-11-18T05:29:00;1125.47;;;999.90;;
31732;SDS011;18312;51.486;7.144;2023-11-18T05:31:27;1125.13;;;999.90;;
31732;SDS011;18312;51.486;7.144;2023-11-18T05:33:57;1131.47;;;999.90;;
31732;SDS011;18312;51.486;7.144;2023-11-18T05:36:24;1125.38;;;999.90;;
31732;SDS011;18312;51.486;7.144;2023-11-18T05:38:52;1130.53;;;999.90;;
31732;SDS011;18312;51.486;7.144;2023-11-18T05:41:20;1128.82;;;999.90;;
31732;SDS011;18312;51.486;7.144;2023-11-18T05:43:53;1131.13;;;999.90;;
31732;SDS011;18312;51.486;7.144;2023-11-18T05:46:21;1125.32;;;999.90;;
31732;SDS011;18312;51.486;7.144;2023-11-18T05:48:51;1126.68;;;999.90;;
31732;SDS011;18312;51.486;7.144;2023-11-18T05:51:20;1125.13;;;999.90;;
31732;SDS011;18312;51.486;7.144;2023-11-18T05:53:47;1134.57;;;999.90;;
31732;SDS011;18312;51.486;7.144;2023-11-18T05:56:16;1126.80;;;999.90;;
31732;SDS011;18312;51.486;7.144;2023-11-18T05:58:42;1127.82;;;999.90;;
31732;SDS011;18312;51.486;7.144;2023-11-18T06:01:09;1128.28;;;999.90;;
31732;SDS011;18312;51.486;7.144;2023-11-18T06:03:37;1128.73;;;999.90;;
31732;SDS011;18312;51.486;7.144;2023-11-18T06:06:05;1128.07;;;999.90;;
31732;SDS011;18312;51.486;7.144;2023-11-18T06:08:34;1127.38;;;999.90;;
31732;SDS011;18312;51.486;7.144;2023-11-18T06:11:00;1129.95;;;999.90;;
31732;SDS011;18312;51.486;7.144;2023-11-18T06:13:38;1129.43;;;999.90;;
31732;SDS011;18312;51.486;7.144;2023-11-18T06:16:08;1132.60;;;999.90;;
31732;SDS011;18312;51.486;7.144;2023-11-18T06:18:39;1136.53;;;999.90;;
31732;SDS011;18312;51.486;7.144;2023-11-18T06:21:06;1132.32;;;999.90;;
31732;SDS011;18312;51.486;7.144;2023-11-18T06:23:35;1137.88;;;999.90;;
31732;SDS011;18312;51.486;7.144;2023-11-18T06:26:02;1136.80;;;999.90;;
31732;SDS011;18312;51.486;7.144;2023-11-18T06:28:29;1138.63;;;999.90;;
31732;SDS011;18312;51.486;7.144;2023-11-18T06:30:56;1137.80;;;999.90;;
31732;SDS011;18312;51.486;7.144;2023-11-18T06:33:23;1136.45;;;999.90;;
31732;SDS011;18312;51.486;7.144;2023-11-18T06:35:52;1140.72;;;999.90;;
31732;SDS011;18312;51.486;7.144;2023-11-18T06:38:21;1137.88;;;999.90;;
31732;SDS011;18312;51.486;7.144;2023-11-18T06:40:49;1139.82;;;999.90;;
31732;SDS011;18312;51.486;7.144;2023-11-18T06:43:17;1139.30;;;999.90;;
31732;SDS011;18312;51.486;7.144;2023-11-18T06:45:44;1141.57;;;999.90;;
31732;SDS011;18312;51.486;7.144;2023-11-18T06:48:12;1140.45;;;999.90;;
31732;SDS011;18312;51.486;7.144;2023-11-18T06:50:39;1143.27;;;999.90;;
31732;SDS011;18312;51.486;7.144;2023-11-18T06:53:09;1141.82;;;999.90;;
31732;SDS011;18312;51.486;7.144;2023-11-18T06:55:36;1144.60;;;999.90;;
31732;SDS011;18312;51.486;7.144;2023-11-18T06:58:04;1139.13;;;999.90;;
31732;SDS011;18312;51.486;7.144;2023-11-18T07:00:31;1143.65;;;999.90;;
31732;SDS011;18312;51.486;7.144;2023-11-18T07:02:58;1141.78;;;999.90;;
31732;SDS011;18312;51.486;7.144;2023-11-18T07:05:26;1141.75;;;999.90;;
31732;SDS011;18312;51.486;7.144;2023-11-18T07:07:54;1142.47;;;999.90;;
31732;SDS011;18312;51.486;7.144;2023-11-18T07:10:20;1142.55;;;999.90;;
31732;SDS011;18312;51.486;7.144;2023-11-18T07:12:47;1144.10;;;999.90;;
31732;SDS011;18312;51.486;7.144;2023-11-18T07:15:15;1145.60;;;999.90;;
31732;SDS011;18312;51.486;7.144;2023-11-18T07:17:42;1147.15;;;999.90;;
31732;SDS011;18312;51.486;7.144;2023-11-18T07:20:09;1145.13;;;999.90;;
31732;SDS011;18312;51.486;7.144;2023-11-18T07:22:38;1149.00;;;999.90;;
31732;SDS011;18312;51.486;7.144;2023-11-18T07:25:06;1146.00;;;999.90;;
31732;SDS011;18312;51.486;7.144;2023-11-18T07:27:34;1143.20;;;999.90;;
31732;SDS011;18312;51.486;7.144;2023-11-18T07:30:01;1145.40;;;999.90;;
31732;SDS011;18312;51.486;7.144;2023-11-18T07:32:32;1145.20;;;999.90;;
31732;SDS011;18312;51.486;7.144;2023-11-18T07:34:59;1147.43;;;999.90;;
31732;SDS011;18312;51.486;7.144;2023-11-18T07:37:26;1149.22;;;999.90;;
31732;SDS011;18312;51.486;7.144;2023-11-18T07:39:57;1153.70;;;999.90;;
31732;SDS011;18312;51.486;7.144;2023-11-18T07:42:25;1154.43;;;999.90;;
31732;SDS011;18312;51.486;7.144;2023-11-18T07:44:52;1155.90;;;999.90;;
31732;SDS011;18312;51.486;7.144;2023-11-18T07:47:20;1154.13;;;999.90;;
31732;SDS011;18312;51.486;7.144;2023-11-18T07:49:48;1155.95;;;999.90;;
31732;SDS011;18312;51.486;7.144;2023-11-18T07:52:14;1152.85;;;999.90;;
31732;SDS011;18312;51.486;7.144;2023-11-18T07:54:42;1158.30;;;999.90;;
31732;SDS011;18312;51.486;7.144;2023-11-18T07:57:08;1151.20;;;999.90;;
31732;SDS011;18312;51.486;7.144;2023-11-18T07:59:35;1160.25;;;999.90;;
31732;SDS011;18312;51.486;7.144;2023-11-18T08:02:02;1160.57;;;999.90;;
31732;SDS011;18312;51.486;7.144;2023-11-18T08:04:34;1162.03;;;999.90;;
31732;SDS011;18312;51.486;7.144;2023-11-18T08:07:03;1165.53;;;999.90;;
31732;SDS011;18312;51.486;7.144;2023-11-18T08:09:30;1165.38;;;999.90;;
31732;SDS011;18312;51.486;7.144;2023-11-18T08:11:57;1163.72;;;999.90;;
31732;SDS011;18312;51.486;7.144;2023-11-18T08:14:24;1163.43;;;999.90;;
31732;SDS011;18312;51.486;7.144;2023-11-18T08:16:51;1166.57;;;999.90;;
31732;SDS011;18312;51.486;7.144;2023-11-18T08:19:20;1165.35;;;999.90;;
31732;SDS011;18312;51.486;7.144;2023-11-18T08:21:49;1168.00;;;999.90;;
31732;SDS011;18312;51.486;7.144;2023-11-18T08:24:18;1172.43;;;999.90;;
31732;SDS011;18312;51.486;7.144;2023-11-18T08:26:46;1171.22;;;999.90;;
31732;SDS011;18312;51.486;7.144;2023-11-18T08:29:13;1172.68;;;999.90;;
31732;SDS011;18312;51.486;7.144;2023-11-18T08:31:40;1176.88;;;999.90;;
31732;SDS011;18312;51.486;7.144;2023-11-18T08:34:06;1170.45;;;999.90;;
31732;SDS011;18312;51.486;7.144;2023-11-18T08:36:35;1174.25;;;999.90;;
31732;SDS011;18312;51.486;7.144;2023-11-18T08:39:02;1180.70;;;999.90;;
31732;SDS011;18312;51.486;7.144;2023-11-18T08:41:31;1182.20;;;999.90;;
31732;SDS011;18312;51.486;7.144;2023-11-18T08:43:57;1181.23;;;999.90;;
31732;SDS011;18312;51.486;7.144;2023-11-18T08:46:24;1183.90;;;999.90;;
31732;SDS011;18312;51.486;7.144;2023-11-18T08:48:51;1182.70;;;999.90;;
31732;SDS011;18312;51.486;7.144;2023-11-18T08:51:22;1181.68;;;999.90;;
31732;SDS011;18312;51.486;7.144;2023-11-18T08:53:51;1183.28;;;999.90;;
31732;SDS011;18312;51.486;7.144;2023-11-18T08:56:22;1184.43;;;999.90;;
31732;SDS011;18312;51.486;7.144;2023-11-18T08:59:01;1178.90;;;999.90;;
31732;SDS011;18312;51.486;7.144;2023-11-18T09:01:27;1185.88;;;999.90;;
31732;SDS011;18312;51.486;7.144;2023-11-18T09:03:56;1191.68;;;999.90;;
31732;SDS011;18312;51.486;7.144;2023-11-18T09:06:26;1188.25;;;999.90;;
31732;SDS011;18312;51.486;7.144;2023-11-18T09:08:54;1185.80;;;999.90;;
31732;SDS011;18312;51.486;7.144;2023-11-18T09:11:22;1187.30;;;999.90;;
31732;SDS011;18312;51.486;7.144;2023-11-18T09:13:54;1186.07;;;999.90;;
31732;SDS011;18312;51.486;7.144;2023-11-18T09:16:26;1183.93;;;999.90;;
31732;SDS011;18312;51.486;7.144;2023-11-18T09:18:54;1184.70;;;999.90;;
31732;SDS011;18312;51.486;7.144;2023-11-18T09:21:24;1182.45;;;999.90;;
31732;SDS011;18312;51.486;7.144;2023-11-18T09:23:54;1182.43;;;999.90;;
31732;SDS011;18312;51.486;7.144;2023-11-18T09:26:21;1180.13;;;999.90;;
31732;SDS011;18312;51.486;7.144;2023-11-18T09:28:48;1181.60;;;999.90;;
31732;SDS011;18312;51.486;7.144;2023-11-18T09:31:17;1180.25;;;999.90;;
31732;SDS011;18312;51.486;7.144;2023-11-18T09:33:47;1187.53;;;999.90;;
31732;SDS011;18312;51.486;7.144;2023-11-18T09:36:18;1185.63;;;999.90;;
31732;SDS011;18312;51.486;7.144;2023-11-18T09:38:46;1180.10;;;999.90;;
31732;SDS011;18312;51.486;7.144;2023-11-18T09:41:14;1185.80;;;999.90;;
31732;SDS011;18312;51.486;7.144;2023-11-18T09:43:43;1184.50;;;999.90;;
31732;SDS011;18312;51.486;7.144;2023-11-18T09:46:11;1192.55;;;999.90;;
31732;SDS011;18312;51.486;7.144;2023-11-18T09:48:40;1194.22;;;999.90;;
31732;SDS011;18312;51.486;7.144;2023-11-18T09:51:13;1189.75;;;999.90;;
31732;SDS011;18312;51.486;7.144;2023-11-18T09:53:43;1184.88;;;999.90;;
31732;SDS011;18312;51.486;7.144;2023-11-18T09:56:13;1184.75;;;999.90;;
31732;SDS011;18312;51.486;7.144;2023-11-18T09:58:53;1186.50;;;999.90;;
31732;SDS011;18312;51.486;7.144;2023-11-18T10:01:28;1186.05;;;999.90;;
31732;SDS011;18312;51.486;7.144;2023-11-18T10:04:03;1188.95;;;999.90;;
31732;SDS011;18312;51.486;7.144;2023-11-18T10:06:33;1190.70;;;999.90;;
31732;SDS011;18312;51.486;7.144;2023-11-18T10:09:02;1188.65;;;999.90;;
31732;SDS011;18312;51.486;7.144;2023-11-18T10:11:40;1195.47;;;999.90;;
31732;SDS011;18312;51.486;7.144;2023-11-18T10:14:07;1191.72;;;999.90;;
31732;SDS011;18312;51.486;7.144;2023-11-18T10:16:35;1193.90;;;999.90;;
31732;SDS011;18312;51.486;7.144;2023-11-18T10:19:03;1195.78;;;999.90;;
31732;SDS011;18312;51.486;7.144;2023-11-18T10:21:35;1193.30;;;999.90;;
31732;SDS011;18312;51.486;7.144;2023-11-18T10:24:06;1194.90;;;999.90;;
31732;SDS011;18312;51.486;7.144;2023-11-18T10:26:39;1197.75;;;999.90;;
31732;SDS011;18312;51.486;7.144;2023-11-18T10:29:10;1196.75;;;999.90;;
31732;SDS011;18312;51.486;7.144;2023-11-18T10:31:38;1195.88;;;999.90;;
31732;SDS011;18312;51.486;7.144;2023-11-18T10:34:10;1201.28;;;999.90;;
31732;SDS011;18312;51.486;7.144;2023-11-18T10:36:42;1199.40;;;999.90;;
31732;SDS011;18312;51.486;7.144;2023-11-18T10:39:27;1201.73;;;999.90;;
31732;SDS011;18312;51.486;7.144;2023-11-18T10:41:58;1197.88;;;999.90;;
31732;SDS011;18312;51.486;7.144;2023-11-18T10:44:26;1197.90;;;999.90;;
31732;SDS011;18312;51.486;7.144;2023-11-18T10:46:55;1197.72;;;999.90;;
31732;SDS011;18312;51.486;7.144;2023-11-18T10:49:23;1195.10;;;999.90;;
31732;SDS011;18312;51.486;7.144;2023-11-18T10:51:52;1196.93;;;999.90;;
31732;SDS011;18312;51.486;7.144;2023-11-18T10:54:19;1198.40;;;999.90;;
31732;SDS011;18312;51.486;7.144;2023-11-18T10:56:47;1198.80;;;999.90;;
31732;SDS011;18312;51.486;7.144;2023-11-18T10:59:14;1201.67;;;999.90;;
31732;SDS011;18312;51.486;7.144;2023-11-18T11:01:54;1200.65;;;999.90;;
31732;SDS011;18312;51.486;7.144;2023-11-18T11:07:15;1204.25;;;999.90;;
31732;SDS011;18312;51.486;7.144;2023-11-18T11:09:45;1208.90;;;999.90;;
31732;SDS011;18312;51.486;7.144;2023-11-18T11:12:11;1203.43;;;999.90;;
31732;SDS011;18312;51.486;7.144;2023-11-18T11:14:42;1209.30;;;999.90;;
31732;SDS011;18312;51.486;7.144;2023-11-18T11:17:24;1211.72;;;999.90;;
31732;SDS011;18312;51.486;7.144;2023-11-18T11:19:59;1210.70;;;999.90;;
31732;SDS011;18312;51.486;7.144;2023-11-18T11:22:45;1212.88;;;999.90;;
31732;SDS011;18312;51.486;7.144;2023-11-18T11:25:22;1205.15;;;999.90;;
31732;SDS011;18312;51.486;7.144;2023-11-18T11:27:59;1210.35;;;999.90;;
31732;SDS011;18312;51.486;7.144;2023-11-18T11:30:37;1213.05;;;999.90;;
31732;SDS011;18312;51.486;7.144;2023-11-18T11:33:12;1209.80;;;999.90;;
31732;SDS011;18312;51.486;7.144;2023-11-18T11:35:46;1214.78;;;999.90;;
31732;SDS011;18312;51.486;7.144;2023-11-18T11:38:23;1213.88;;;999.90;;
31732;SDS011;18312;51.486;7.144;2023-11-18T11:40:51;1214.23;;;999.90;;
31732;SDS011;18312;51.486;7.144;2023-11-18T11:43:20;1213.50;;;999.90;;
31732;SDS011;18312;51.486;7.144;2023-11-18T11:45:47;1213.78;;;999.90;;
31732;SDS011;18312;51.486;7.144;2023-11-18T11:48:17;1217.35;;;999.90;;
31732;SDS011;18312;51.486;7.144;2023-11-18T11:50:54;1216.85;;;999.90;;
31732;SDS011;18312;51.486;7.144;2023-11-18T11:53:41;1215.20;;;999.90;;
31732;SDS011;18312;51.486;7.144;2023-11-18T11:56:12;1217.65;;;999.90;;
31732;SDS011;18312;51.486;7.144;2023-11-18T11:58:45;1214.20;;;999.90;;
31732;SDS011;18312;51.486;7.144;2023-11-18T12:01:21;1214.77;;;999.90;;
31732;SDS011;18312;51.486;7.144;2023-11-18T12:03:55;1215.93;;;999.90;;
31732;SDS011;18312;51.486;7.144;2023-11-18T12:06:23;1211.90;;;999.90;;
31732;SDS011;18312;51.486;7.144;2023-11-18T12:08:52;1210.90;;;999.90;;
31732;SDS011;18312;51.486;7.144;2023-11-18T12:11:20;1208.60;;;999.90;;
31732;SDS011;18312;51.486;7.144;2023-11-18T12:14:00;1213.50;;;999.90;;
31732;SDS011;18312;51.486;7.144;2023-11-18T12:19:29;1206.95;;;999.90;;
31732;SDS011;18312;51.486;7.144;2023-11-18T12:21:57;1205.78;;;999.90;;
31732;SDS011;18312;51.486;7.144;2023-11-18T12:24:27;1204.27;;;999.90;;
31732;SDS011;18312;51.486;7.144;2023-11-18T12:26:58;1208.05;;;999.90;;
31732;SDS011;18312;51.486;7.144;2023-11-18T12:29:31;1208.30;;;999.90;;
31732;SDS011;18312;51.486;7.144;2023-11-18T12:31:59;1209.10;;;999.90;;
31732;SDS011;18312;51.486;7.144;2023-11-18T12:40:27;1208.07;;;999.90;;
31732;SDS011;18312;51.486;7.144;2023-11-18T12:43:16;1204.88;;;999.90;;
31732;SDS011;18312;51.486;7.144;2023-11-18T12:45:51;1204.28;;;999.90;;
31732;SDS011;18312;51.486;7.144;2023-11-18T12:48:39;1203.23;;;999.90;;
31732;SDS011;18312;51.486;7.144;2023-11-18T12:51:11;1202.25;;;999.90;;
31732;SDS011;18312;51.486;7.144;2023-11-18T12:53:45;1207.63;;;999.90;;
31732;SDS011;18312;51.486;7.144;2023-11-18T12:56:16;1205.15;;;999.90;;
31732;SDS011;18312;51.486;7.144;2023-11-18T12:58:45;1200.65;;;999.90;;
31732;SDS011;18312;51.486;7.144;2023-11-18T13:01:12;1205.70;;;999.90;;
31732;SDS011;18312;51.486;7.144;2023-11-18T13:03:39;1202.70;;;999.90;;
31732;SDS011;18312;51.486;7.144;2023-11-18T13:06:07;1204.57;;;999.90;;
31732;SDS011;18312;51.486;7.144;2023-11-18T13:08:39;1201.38;;;999.90;;
31732;SDS011;18312;51.486;7.144;2023-11-18T13:11:06;1199.43;;;999.90;;
31732;SDS011;18312;51.486;7.144;2023-11-18T13:13:42;1196.70;;;999.90;;
31732;SDS011;18312;51.486;7.144;2023-11-18T13:16:09;1192.05;;;999.90;;
31732;SDS011;18312;51.486;7.144;2023-11-18T13:18:42;1201.70;;;999.90;;
31732;SDS011;18312;51.486;7.144;2023-11-18T13:21:16;1195.93;;;999.90;;
31732;SDS011;18312;51.486;7.144;2023-11-18T13:23:47;1196.37;;;999.90;;
31732;SDS011;18312;51.486;7.144;2023-11-18T13:26:15;1201.90;;;999.90;;
31732;SDS011;18312;51.486;7.144;2023-11-18T13:28:44;1204.05;;;999.90;;
31732;SDS011;18312;51.486;7.144;2023-11-18T13:31:12;1202.80;;;999.90;;
31732;SDS011;18312;51.486;7.144;2023-11-18T13:33:41;1203.97;;;999.90;;
31732;SDS011;18312;51.486;7.144;2023-11-18T13:36:09;1203.22;;;999.90;;
31732;SDS011;18312;51.486;7.144;2023-11-18T13:38:36;1202.07;;;999.90;;
31732;SDS011;18312;51.486;7.144;2023-11-18T13:41:04;1206.30;;;999.90;;
31732;SDS011;18312;51.486;7.144;2023-11-18T13:43:45;1198.18;;;999.90;;
31732;SDS011;18312;51.486;7.144;2023-11-18T13:46:13;1202.57;;;999.90;;
31732;SDS011;18312;51.486;7.144;2023-11-18T13:48:40;1203.83;;;999.90;;
31732;SDS011;18312;51.486;7.144;2023-11-18T13:51:07;1202.07;;;999.90;;
31732;SDS011;18312;51.486;7.144;2023-11-18T13:53:37;1196.55;;;999.90;;
31732;SDS011;18312;51.486;7.144;2023-11-18T13:56:05;1197.70;;;999.90;;
31732;SDS011;18312;51.486;7.144;2023-11-18T13:58:34;1203.70;;;999.90;;
31732;SDS011;18312;51.486;7.144;2023-11-18T14:01:05;1200.80;;;999.90;;
31732;SDS011;18312;51.486;7.144;2023-11-18T14:03:34;1198.72;;;999.90;;
31732;SDS011;18312;51.486;7.144;2023-11-18T14:06:02;1200.93;;;999.90;;